AJM61 MKJP-TBPB
Flight info
| Callsign | AJM61 |
|---|---|
| Flight time | N/A |
| Altitude | 33000 |
| Route | ALKOL5 MLY UH106 NOSIS UL349 SATOE L343 ANADA DCT BNE UR750 BGI |
| Aircraft | B722/M-Z/C |
Departure
| Time | 2026-04-30 21:33 |
|---|---|
| Airport | Norman Manley International Airport (MKJP) |
Arrival
| Time | N/A |
|---|---|
| Airport | Grantley Adams International Airport (TBPB) |
| Time | Latitude | Longitude | Altitude | Speed | Heading |
|---|---|---|---|---|---|
| 2026-04-30 20:54 | 17.93669 | -76.78042 | 17 ft | 0 kts | 112° |
| 2026-04-30 21:17 | 17.93670 | -76.78043 | 17 ft | 2 kts | 112° |
| 2026-04-30 21:17 | 17.93676 | -76.78059 | 45 ft | 2 kts | 111° |
| 2026-04-30 21:18 | 17.93682 | -76.78075 | 36 ft | 2 kts | 112° |
| 2026-04-30 21:18 | 17.93692 | -76.78089 | 13 ft | 2 kts | 154° |
| 2026-04-30 21:18 | 17.93705 | -76.78089 | 15 ft | 1 kts | 194° |
| 2026-04-30 21:18 | 17.93707 | -76.78088 | 15 ft | 0 kts | 196° |
| 2026-04-30 21:23 | 17.93706 | -76.78089 | 17 ft | 0 kts | 198° |
| 2026-04-30 21:23 | 17.93668 | -76.78105 | 17 ft | 6 kts | 202° |
| 2026-04-30 21:24 | 17.93620 | -76.78125 | 17 ft | 9 kts | 201° |
| 2026-04-30 21:24 | 17.93558 | -76.78151 | 17 ft | 11 kts | 202° |
| 2026-04-30 21:24 | 17.93519 | -76.78209 | 17 ft | 11 kts | 284° |
| 2026-04-30 21:24 | 17.93549 | -76.78291 | 19 ft | 13 kts | 292° |
| 2026-04-30 21:25 | 17.93633 | -76.78503 | 17 ft | 18 kts | 292° |
| 2026-04-30 21:25 | 17.93682 | -76.78631 | 18 ft | 20 kts | 291° |
| 2026-04-30 21:25 | 17.93735 | -76.78771 | 18 ft | 22 kts | 291° |
| 2026-04-30 21:26 | 17.93855 | -76.79082 | 18 ft | 24 kts | 292° |
| 2026-04-30 21:26 | 17.93896 | -76.79191 | 18 ft | 24 kts | 291° |
| 2026-04-30 21:27 | 17.94006 | -76.79475 | 17 ft | 22 kts | 292° |
| 2026-04-30 21:27 | 17.94064 | -76.79625 | 16 ft | 20 kts | 292° |
| 2026-04-30 21:27 | 17.94089 | -76.79725 | 16 ft | 11 kts | 279° |
| 2026-04-30 21:28 | 17.94105 | -76.79832 | 16 ft | 5 kts | 279° |
| 2026-04-30 21:28 | 17.94103 | -76.79876 | 18 ft | 5 kts | 250° |
| 2026-04-30 21:28 | 17.94102 | -76.79878 | 18 ft | 0 kts | 246° |
| 2026-04-30 21:29 | 17.94100 | -76.79882 | 17 ft | 1 kts | 239° |
| 2026-04-30 21:30 | 17.94038 | -76.79922 | 16 ft | 8 kts | 182° |
| 2026-04-30 21:31 | 17.94003 | -76.79885 | 16 ft | 0 kts | 113° |
| 2026-04-30 21:31 | 17.94000 | -76.79877 | 16 ft | 12 kts | 113° |
| 2026-04-30 21:32 | 17.93657 | -76.78992 | 18 ft | 112 kts | 112° |
| 2026-04-30 21:32 | 17.93320 | -76.78116 | 21 ft | 145 kts | 112° |
| 2026-04-30 21:32 | 17.92878 | -76.77049 | 89 ft | 166 kts | 116° |
| 2026-04-30 21:32 | 17.92377 | -76.75971 | 456 ft | 163 kts | 115° |
| 2026-04-30 21:33 | 17.91883 | -76.74880 | 760 ft | 164 kts | 115° |
| 2026-04-30 21:33 | 17.91035 | -76.72547 | 1386 ft | 179 kts | 115° |
| 2026-04-30 21:33 | 17.90530 | -76.71347 | 1803 ft | 180 kts | 113° |
| 2026-04-30 21:34 | 17.90029 | -76.70115 | 2131 ft | 186 kts | 113° |
| 2026-04-30 21:34 | 17.88914 | -76.67499 | 2910 ft | 209 kts | 112° |
| 2026-04-30 21:34 | 17.88353 | -76.66053 | 3490 ft | 218 kts | 111° |
| 2026-04-30 21:35 | 17.87781 | -76.64499 | 3914 ft | 234 kts | 109° |
| 2026-04-30 21:35 | 17.87238 | -76.62873 | 4493 ft | 243 kts | 108° |
| 2026-04-30 21:35 | 17.86673 | -76.61127 | 5024 ft | 256 kts | 108° |
| 2026-04-30 21:35 | 17.86115 | -76.59335 | 5642 ft | 265 kts | 107° |
| 2026-04-30 21:36 | 17.85548 | -76.57454 | 6298 ft | 271 kts | 107° |
| 2026-04-30 21:36 | 17.84986 | -76.55594 | 7107 ft | 270 kts | 108° |
| 2026-04-30 21:37 | 17.83335 | -76.49552 | 8857 ft | 295 kts | 91° |
| 2026-04-30 21:37 | 17.83616 | -76.47425 | 9508 ft | 299 kts | 75° |
| 2026-04-30 21:37 | 17.84243 | -76.45323 | 10129 ft | 303 kts | 71° |
| 2026-04-30 21:37 | 17.84923 | -76.43193 | 10749 ft | 307 kts | 71° |
| 2026-04-30 21:38 | 17.85603 | -76.41062 | 11195 ft | 318 kts | 71° |
| 2026-04-30 21:38 | 17.86327 | -76.38797 | 11555 ft | 332 kts | 71° |
| 2026-04-30 21:38 | 17.87072 | -76.36467 | 11925 ft | 344 kts | 71° |
| 2026-04-30 21:38 | 17.87849 | -76.34031 | 12286 ft | 357 kts | 71° |
| 2026-04-30 21:39 | 17.88644 | -76.31520 | 12782 ft | 363 kts | 71° |
| 2026-04-30 21:39 | 17.89439 | -76.28982 | 13423 ft | 368 kts | 72° |
| 2026-04-30 21:39 | 17.90092 | -76.26358 | 13916 ft | 374 kts | 77° |
| 2026-04-30 21:39 | 17.90600 | -76.23661 | 14517 ft | 376 kts | 79° |
| 2026-04-30 21:40 | 17.91012 | -76.20946 | 15084 ft | 378 kts | 81° |
| 2026-04-30 21:40 | 17.91344 | -76.18208 | 15636 ft | 381 kts | 83° |
| 2026-04-30 21:40 | 17.91588 | -76.15426 | 16188 ft | 385 kts | 84° |
| 2026-04-30 21:40 | 17.91778 | -76.12585 | 16761 ft | 387 kts | 86° |
| 2026-04-30 21:41 | 17.91878 | -76.09750 | 17310 ft | 390 kts | 88° |
| 2026-04-30 21:41 | 17.91893 | -76.06902 | 17849 ft | 394 kts | 89° |
| 2026-04-30 21:41 | 17.91853 | -76.04025 | 18359 ft | 397 kts | 90° |
| 2026-04-30 21:41 | 17.91775 | -76.01113 | 18813 ft | 400 kts | 91° |
| 2026-04-30 21:42 | 17.91674 | -75.98173 | 19265 ft | 403 kts | 91° |
| 2026-04-30 21:42 | 17.91573 | -75.95208 | 19706 ft | 406 kts | 91° |
| 2026-04-30 21:42 | 17.91472 | -75.92220 | 20150 ft | 410 kts | 91° |
| 2026-04-30 21:42 | 17.91372 | -75.89243 | 20585 ft | 413 kts | 91° |
| 2026-04-30 21:43 | 17.91270 | -75.86195 | 21010 ft | 416 kts | 91° |
| 2026-04-30 21:43 | 17.91202 | -75.84160 | 21298 ft | 418 kts | 91° |
| 2026-04-30 21:43 | 17.91066 | -75.80075 | 21864 ft | 423 kts | 91° |
| 2026-04-30 21:43 | 17.90964 | -75.76977 | 22282 ft | 426 kts | 91° |
| 2026-04-30 21:44 | 17.90862 | -75.73870 | 22685 ft | 429 kts | 91° |
| 2026-04-30 21:44 | 17.90758 | -75.70683 | 23095 ft | 432 kts | 91° |
| 2026-04-30 21:44 | 17.90657 | -75.67563 | 23477 ft | 435 kts | 91° |
| 2026-04-30 21:44 | 17.90553 | -75.64377 | 23794 ft | 439 kts | 91° |
| 2026-04-30 21:45 | 17.90449 | -75.61139 | 24092 ft | 442 kts | 91° |
| 2026-04-30 21:45 | 17.90347 | -75.57914 | 24388 ft | 445 kts | 91° |
| 2026-04-30 21:45 | 17.90236 | -75.54657 | 24687 ft | 448 kts | 92° |
| 2026-04-30 21:45 | 17.90124 | -75.51353 | 24979 ft | 452 kts | 92° |
| 2026-04-30 21:46 | 17.90011 | -75.48017 | 25265 ft | 455 kts | 92° |
| 2026-04-30 21:46 | 17.89898 | -75.44675 | 25540 ft | 458 kts | 92° |
| 2026-04-30 21:46 | 17.89785 | -75.41353 | 25818 ft | 461 kts | 92° |
| 2026-04-30 21:46 | 17.89671 | -75.37988 | 26085 ft | 465 kts | 92° |
| 2026-04-30 21:47 | 17.89554 | -75.34543 | 26354 ft | 467 kts | 92° |
| 2026-04-30 21:47 | 17.89478 | -75.32286 | 26557 ft | 469 kts | 92° |
| 2026-04-30 21:47 | 17.89330 | -75.27724 | 26936 ft | 472 kts | 92° |
| 2026-04-30 21:47 | 17.89220 | -75.24286 | 27227 ft | 473 kts | 92° |
| 2026-04-30 21:48 | 17.89143 | -75.21962 | 27425 ft | 475 kts | 92° |
| 2026-04-30 21:48 | 17.89028 | -75.18447 | 27721 ft | 476 kts | 92° |
| 2026-04-30 21:48 | 17.88915 | -75.14992 | 28012 ft | 478 kts | 92° |
| 2026-04-30 21:48 | 17.88800 | -75.11488 | 28315 ft | 479 kts | 92° |
| 2026-04-30 21:49 | 17.88685 | -75.07983 | 28616 ft | 480 kts | 93° |
| 2026-04-30 21:49 | 17.88569 | -75.04446 | 28923 ft | 481 kts | 93° |
| 2026-04-30 21:49 | 17.88454 | -75.00954 | 29229 ft | 481 kts | 93° |
| 2026-04-30 21:49 | 17.88340 | -74.97460 | 29532 ft | 482 kts | 93° |
| 2026-04-30 21:50 | 17.88223 | -74.93903 | 29855 ft | 482 kts | 93° |
| 2026-04-30 21:50 | 17.88100 | -74.90364 | 30139 ft | 482 kts | 93° |
| 2026-04-30 21:50 | 17.87976 | -74.86840 | 30404 ft | 482 kts | 93° |
| 2026-04-30 21:50 | 17.87852 | -74.83326 | 30673 ft | 482 kts | 93° |
| 2026-04-30 21:51 | 17.87728 | -74.79816 | 30945 ft | 482 kts | 93° |
| 2026-04-30 21:51 | 17.87605 | -74.76319 | 31219 ft | 481 kts | 93° |
| 2026-04-30 21:51 | 17.87481 | -74.72789 | 31496 ft | 480 kts | 93° |
| 2026-04-30 21:51 | 17.87360 | -74.69316 | 31771 ft | 479 kts | 93° |
| 2026-04-30 21:52 | 17.87238 | -74.65814 | 32049 ft | 478 kts | 93° |
| 2026-04-30 21:52 | 17.87116 | -74.62329 | 32300 ft | 478 kts | 93° |
| 2026-04-30 21:52 | 17.86994 | -74.58840 | 32534 ft | 478 kts | 93° |
| 2026-04-30 21:52 | 17.86872 | -74.55357 | 32783 ft | 477 kts | 93° |
| 2026-04-30 21:53 | 17.86751 | -74.51871 | 32915 ft | 480 kts | 93° |
| 2026-04-30 21:53 | 17.86626 | -74.48320 | 32914 ft | 486 kts | 93° |
| 2026-04-30 21:53 | 17.86374 | -74.41172 | 32928 ft | 497 kts | 93° |
| 2026-04-30 21:54 | 17.86111 | -74.33833 | 32924 ft | 507 kts | 94° |
| 2026-04-30 21:54 | 17.85843 | -74.26404 | 32918 ft | 515 kts | 94° |
| 2026-04-30 21:55 | 17.85554 | -74.18840 | 32921 ft | 519 kts | 94° |
| 2026-04-30 21:55 | 17.85480 | -74.11202 | 32918 ft | 523 kts | 89° |
| 2026-04-30 21:56 | 17.85766 | -74.03523 | 32922 ft | 526 kts | 88° |
| 2026-04-30 21:56 | 17.86075 | -73.95838 | 32920 ft | 529 kts | 89° |
| 2026-04-30 21:57 | 17.86370 | -73.88213 | 32923 ft | 532 kts | 89° |
| 2026-04-30 21:57 | 17.86672 | -73.80399 | 32923 ft | 534 kts | 89° |
| 2026-04-30 21:58 | 17.86975 | -73.72564 | 32920 ft | 537 kts | 89° |
| 2026-04-30 21:58 | 17.87260 | -73.64754 | 32918 ft | 539 kts | 89° |
| 2026-04-30 21:59 | 17.87547 | -73.56801 | 32923 ft | 538 kts | 89° |
| 2026-04-30 22:00 | 17.87953 | -73.45000 | 32917 ft | 537 kts | 89° |
| 2026-04-30 22:00 | 17.88351 | -73.33254 | 32917 ft | 536 kts | 89° |
| 2026-04-30 22:01 | 17.88625 | -73.25434 | 32913 ft | 535 kts | 89° |
| 2026-04-30 22:01 | 17.88899 | -73.17583 | 32910 ft | 535 kts | 89° |
| 2026-04-30 22:02 | 17.89159 | -73.09804 | 32907 ft | 534 kts | 89° |
| 2026-04-30 22:02 | 17.89416 | -73.02003 | 32916 ft | 534 kts | 89° |
| 2026-04-30 22:03 | 17.89671 | -72.94159 | 32912 ft | 534 kts | 89° |
| 2026-04-30 22:03 | 17.89924 | -72.86219 | 32929 ft | 533 kts | 89° |
| 2026-04-30 22:04 | 17.90172 | -72.78376 | 32925 ft | 533 kts | 90° |
| 2026-04-30 22:05 | 17.90500 | -72.67861 | 32929 ft | 533 kts | 90° |
| 2026-04-30 22:05 | 17.90737 | -72.60073 | 32927 ft | 533 kts | 90° |
| 2026-04-30 22:06 | 17.90980 | -72.52234 | 32928 ft | 533 kts | 90° |
| 2026-04-30 22:06 | 17.91336 | -72.40550 | 32926 ft | 533 kts | 90° |
| 2026-04-30 22:07 | 17.91572 | -72.32706 | 32922 ft | 534 kts | 90° |
| 2026-04-30 22:07 | 17.91803 | -72.24914 | 32926 ft | 534 kts | 90° |
| 2026-04-30 22:08 | 17.92029 | -72.17115 | 32926 ft | 534 kts | 90° |
| 2026-04-30 22:08 | 17.92252 | -72.09262 | 32927 ft | 534 kts | 90° |
| 2026-04-30 22:09 | 17.92470 | -72.01449 | 32930 ft | 534 kts | 90° |
| 2026-04-30 22:09 | 17.92685 | -71.93594 | 32929 ft | 534 kts | 90° |
| 2026-04-30 22:10 | 17.92894 | -71.85735 | 32932 ft | 534 kts | 90° |
| 2026-04-30 22:10 | 17.93098 | -71.77915 | 32939 ft | 534 kts | 90° |
| 2026-04-30 22:11 | 17.93336 | -71.65985 | 32943 ft | 534 kts | 93° |
| 2026-04-30 22:12 | 17.92974 | -71.58162 | 32946 ft | 532 kts | 97° |
| 2026-04-30 22:12 | 17.92365 | -71.50318 | 32954 ft | 532 kts | 96° |
| 2026-04-30 22:13 | 17.91864 | -71.42446 | 32956 ft | 533 kts | 96° |
| 2026-04-30 22:13 | 17.91433 | -71.35939 | 32953 ft | 533 kts | 96° |
| 2026-04-30 22:14 | 17.90909 | -71.28128 | 32951 ft | 533 kts | 96° |
| 2026-04-30 22:14 | 17.90384 | -71.20352 | 32946 ft | 533 kts | 96° |
| 2026-04-30 22:15 | 17.89854 | -71.12588 | 32944 ft | 533 kts | 96° |
| 2026-04-30 22:15 | 17.89333 | -71.04827 | 32939 ft | 533 kts | 96° |
| 2026-04-30 22:16 | 17.88807 | -70.97002 | 32936 ft | 533 kts | 96° |
| 2026-04-30 22:17 | 17.87750 | -70.81474 | 32932 ft | 533 kts | 96° |
| 2026-04-30 22:17 | 17.86945 | -70.69834 | 32923 ft | 533 kts | 96° |
| 2026-04-30 22:18 | 17.86127 | -70.58162 | 32924 ft | 532 kts | 96° |
| 2026-04-30 22:19 | 17.85302 | -70.46525 | 32925 ft | 532 kts | 96° |
| 2026-04-30 22:20 | 17.84465 | -70.34863 | 32931 ft | 532 kts | 96° |
| 2026-04-30 22:20 | 17.83620 | -70.23235 | 32931 ft | 532 kts | 96° |
| 2026-04-30 22:21 | 17.83048 | -70.15427 | 32930 ft | 532 kts | 96° |
| 2026-04-30 22:21 | 17.82478 | -70.07723 | 32930 ft | 532 kts | 96° |
| 2026-04-30 22:22 | 17.81901 | -69.99959 | 32932 ft | 533 kts | 96° |
| 2026-04-30 22:22 | 17.81318 | -69.92189 | 32932 ft | 533 kts | 96° |
| 2026-04-30 22:23 | 17.80739 | -69.84409 | 32935 ft | 533 kts | 96° |
| 2026-04-30 22:23 | 17.80157 | -69.76623 | 32936 ft | 533 kts | 96° |
| 2026-04-30 22:24 | 17.79575 | -69.68910 | 32940 ft | 533 kts | 96° |
| 2026-04-30 22:24 | 17.78981 | -69.61124 | 32935 ft | 533 kts | 96° |
| 2026-04-30 22:25 | 17.78387 | -69.53387 | 32936 ft | 533 kts | 96° |
| 2026-04-30 22:25 | 17.77791 | -69.45625 | 32936 ft | 533 kts | 96° |
| 2026-04-30 22:26 | 17.76892 | -69.33969 | 32934 ft | 533 kts | 96° |
| 2026-04-30 22:27 | 17.76299 | -69.26241 | 32931 ft | 533 kts | 96° |
| 2026-04-30 22:27 | 17.75393 | -69.14541 | 32935 ft | 533 kts | 96° |
| 2026-04-30 22:28 | 17.74483 | -69.02924 | 32934 ft | 533 kts | 96° |
| 2026-04-30 22:29 | 17.73255 | -68.87420 | 32936 ft | 534 kts | 96° |
| 2026-04-30 22:31 | 17.71053 | -68.60189 | 32940 ft | 534 kts | 97° |
| 2026-04-30 22:32 | 17.69412 | -68.40782 | 32937 ft | 534 kts | 96° |
| 2026-04-30 22:33 | 17.68056 | -68.22679 | 32939 ft | 535 kts | 96° |
| 2026-04-30 22:35 | 17.66479 | -68.03219 | 32942 ft | 534 kts | 98° |
| 2026-04-30 22:36 | 17.59549 | -67.90190 | 32955 ft | 511 kts | 135° |
| 2026-04-30 22:36 | 17.57303 | -67.87279 | 32952 ft | 513 kts | 134° |
| 2026-04-30 22:37 | 17.48690 | -67.75271 | 32950 ft | 515 kts | 131° |
| 2026-04-30 22:38 | 17.40243 | -67.62907 | 32948 ft | 516 kts | 130° |
| 2026-04-30 22:39 | 17.34010 | -67.53740 | 32948 ft | 517 kts | 130° |
| 2026-04-30 22:40 | 17.21405 | -67.35231 | 32942 ft | 518 kts | 130° |
| 2026-04-30 22:41 | 17.10922 | -67.19864 | 32938 ft | 519 kts | 130° |
| 2026-04-30 22:43 | 16.98320 | -67.01411 | 32947 ft | 519 kts | 130° |
| 2026-04-30 22:44 | 16.89942 | -66.88899 | 32945 ft | 520 kts | 129° |
| 2026-04-30 22:45 | 16.78084 | -66.71452 | 32943 ft | 520 kts | 130° |
| 2026-04-30 22:47 | 16.65301 | -66.52855 | 32940 ft | 520 kts | 130° |
| 2026-04-30 22:48 | 16.56906 | -66.40692 | 32930 ft | 519 kts | 130° |
| 2026-04-30 22:49 | 16.44188 | -66.22262 | 32931 ft | 519 kts | 130° |
| 2026-04-30 22:51 | 16.31611 | -66.03875 | 32940 ft | 518 kts | 129° |
| 2026-04-30 22:52 | 16.25381 | -65.94710 | 32937 ft | 517 kts | 129° |
| 2026-04-30 22:53 | 16.16961 | -65.82581 | 32938 ft | 516 kts | 129° |
| 2026-04-30 22:53 | 16.10666 | -65.73574 | 32941 ft | 515 kts | 129° |
| 2026-04-30 22:55 | 16.00174 | -65.58410 | 32934 ft | 515 kts | 129° |
| 2026-04-30 22:56 | 15.91834 | -65.46340 | 32932 ft | 514 kts | 129° |
| 2026-04-30 22:57 | 15.81398 | -65.31290 | 32937 ft | 513 kts | 128° |
| 2026-04-30 22:58 | 15.73019 | -65.19291 | 32940 ft | 512 kts | 129° |
| 2026-04-30 22:59 | 15.60465 | -65.01269 | 32935 ft | 511 kts | 128° |